Terminal Aerodrome Forecast
Issued by NWS

Home | Current Version | Previous Version | Text Only | Print | Product List | Glossary On
Versions: 1 2 3 4 5 6 7 8 9 10 11 12 13
000
FTUS45 KRIW 271300 AAA
TAFJAC
TAF AMD
KJAC 271341Z 2714/2812 34005KT 2SM BR BKN020
     FM271600 15005KT P6SM VCSH BKN030
     FM272200 VRB04KT 3SM -SN OVC024
     FM280800 VRB04KT P6SM VCSH SCT025 BKN035
      AMD LTD TO CLD VIS AND WIND=

USA.gov is the U.S. government's official web portal to all federal, state and local government web resources and services.